Time;durP1;ratioP1;P1;durP2;ratioP2;P2;SDS_P1;SDS_P2;PMS_P1;PMS_P2;Temp;Humidity;BMP_temperature;BMP_pressure;BME280_temperature;BME280_humidity;BME280_pressure;Samples;Min_cycle;Max_cycle;Signal;HPM_P1;HPM_P2
2022/09/13 00:00:43;;;;;;;0.08;0.08;;;15.20;99.90;;;;;;5049361;28;20277;-68
2022/09/13 00:03:10;;;;;;;0.20;0.20;;;15.20;99.90;;;;;;5050207;28;20307;-67
2022/09/13 00:05:37;;;;;;;0.00;0.00;;;15.20;99.90;;;;;;5045442;28;20669;-68
2022/09/13 00:08:03;;;;;;;0.00;0.00;;;15.10;99.90;;;;;;5034788;28;20253;-68
2022/09/13 00:10:30;;;;;;;0.10;0.10;;;15.10;99.90;;;;;;5051124;28;20507;-68
2022/09/13 00:12:55;;;;;;;0.00;0.00;;;15.10;99.90;;;;;;5047405;28;20268;-68
2022/09/13 00:15:22;;;;;;;0.00;0.00;;;15.10;99.90;;;;;;5040978;28;20712;-68
2022/09/13 00:17:47;;;;;;;0.00;0.00;;;15.10;99.90;;;;;;5043285;28;20260;-68
2022/09/13 00:20:13;;;;;;;0.28;0.28;;;15.10;99.90;;;;;;5039932;28;20261;-68
2022/09/13 00:22:38;;;;;;;0.10;0.10;;;15.00;99.90;;;;;;5040708;28;20260;-68
2022/09/13 00:25:05;;;;;;;0.00;0.00;;;15.00;99.90;;;;;;5035194;28;20178;-68
2022/09/13 00:27:32;;;;;;;0.00;0.00;;;15.00;99.90;;;;;;5028650;28;20271;-68
2022/09/13 00:29:58;;;;;;;0.10;0.10;;;15.00;99.90;;;;;;5039753;28;20269;-68
2022/09/13 00:32:23;;;;;;;0.00;0.00;;;14.90;99.90;;;;;;5042932;28;20273;-68
2022/09/13 00:34:49;;;;;;;0.00;0.00;;;14.90;99.90;;;;;;5048179;28;20204;-68
2022/09/13 00:37:14;;;;;;;0.00;0.00;;;14.90;99.90;;;;;;5037631;28;20181;-68
2022/09/13 00:39:40;;;;;;;0.00;0.00;;;14.90;99.90;;;;;;5039965;28;20593;-68
2022/09/13 00:42:08;;;;;;;0.00;0.00;;;14.80;99.90;;;;;;5034666;28;20728;-68
2022/09/13 00:44:59;;;;;;;0.00;0.00;;;14.80;99.90;;;;;;5031767;28;20178;-68
2022/09/13 00:47:42;;;;;;;0.00;0.00;;;14.70;99.90;;;;;;5033231;28;20209;-68
2022/09/13 00:50:18;;;;;;;0.08;0.08;;;14.70;99.90;;;;;;5038562;28;20558;-68
2022/09/13 00:52:48;;;;;;;0.00;0.00;;;14.70;99.90;;;;;;5037182;28;20638;-68
2022/09/13 00:55:25;;;;;;;0.00;0.00;;;14.70;99.90;;;;;;5041316;28;20178;-67
2022/09/13 00:57:52;;;;;;;0.00;0.00;;;14.60;99.90;;;;;;5044866;28;20181;-67
2022/09/13 01:00:19;;;;;;;0.03;0.03;;;14.60;99.90;;;;;;5046566;28;20595;-67
2022/09/13 01:02:50;;;;;;;0.10;0.10;;;14.60;99.90;;;;;;5033078;28;20234;-68
2022/09/13 01:05:19;;;;;;;0.05;0.05;;;14.60;99.90;;;;;;5042013;28;20547;-67
2022/09/13 01:07:45;;;;;;;0.00;0.00;;;14.50;99.90;;;;;;5036934;28;20212;-67
2022/09/13 01:10:11;;;;;;;1.15;0.95;;;14.50;99.90;;;;;;5043121;28;20169;-67
2022/09/13 01:12:59;;;;;;;0.00;0.00;;;14.50;99.90;;;;;;5040489;28;20232;-68
2022/09/13 01:15:24;;;;;;;0.00;0.00;;;14.50;99.90;;;;;;5034408;28;20182;-68
2022/09/13 01:17:53;;;;;;;0.68;0.68;;;14.40;99.90;;;;;;5049433;28;20694;-67
2022/09/13 01:20:22;;;;;;;0.00;0.00;;;14.40;99.90;;;;;;5052225;28;20208;-67
2022/09/13 01:23:34;;;;;;;0.00;0.00;;;14.40;99.90;;;;;;5048296;28;20268;-68
2022/09/13 01:26:16;;;;;;;0.00;0.00;;;14.40;99.90;;;;;;5044304;28;20173;-68
2022/09/13 01:29:19;;;;;;;0.00;0.00;;;14.30;99.90;;;;;;5045617;28;20194;-68
2022/09/13 01:32:40;;;;;;;0.00;0.00;;;14.30;99.90;;;;;;5029214;28;20645;-68
2022/09/13 01:35:05;;;;;;;0.05;0.05;;;14.30;99.90;;;;;;5028192;28;20188;-68
2022/09/13 01:37:42;;;;;;;0.00;0.00;;;14.30;99.90;;;;;;5041304;28;20189;-67
2022/09/13 01:40:33;;;;;;;0.00;0.00;;;14.30;99.90;;;;;;5048749;28;20235;-68
2022/09/13 01:43:35;;;;;;;0.00;0.00;;;14.20;99.90;;;;;;5033779;28;20270;-68
2022/09/13 01:46:20;;;;;;;0.00;0.00;;;14.20;99.90;;;;;;5039733;28;20188;-67
2022/09/13 01:49:02;;;;;;;0.00;0.00;;;14.20;99.90;;;;;;5049280;28;20221;-67
2022/09/13 01:51:35;;;;;;;0.05;0.05;;;14.20;99.90;;;;;;5049700;28;20264;-67
2022/09/13 01:54:11;;;;;;;0.00;0.00;;;14.10;99.90;;;;;;5036965;28;20182;-68
2022/09/13 01:57:10;;;;;;;0.00;0.00;;;14.10;99.90;;;;;;5049656;28;20177;-67
2022/09/13 02:00:06;;;;;;;0.00;0.00;;;14.00;99.90;;;;;;5037666;28;20197;-67
2022/09/13 02:02:39;;;;;;;0.00;0.00;;;14.00;99.90;;;;;;5030432;28;20603;-68
2022/09/13 02:05:30;;;;;;;0.00;0.00;;;14.00;99.90;;;;;;5043128;28;20173;-68
2022/09/13 02:08:27;;;;;;;0.00;0.00;;;13.90;99.90;;;;;;5038181;28;20221;-67
2022/09/13 02:11:01;;;;;;;0.00;0.00;;;13.90;99.90;;;;;;5047340;28;20679;-68
2022/09/13 02:13:34;;;;;;;0.00;0.00;;;13.90;99.90;;;;;;5046576;28;20587;-67
2022/09/13 02:16:06;;;;;;;0.00;0.00;;;13.90;99.90;;;;;;5038065;28;20182;-68
2022/09/13 02:18:37;;;;;;;0.00;0.00;;;13.90;99.90;;;;;;5045351;28;20796;-67
2022/09/13 02:21:26;;;;;;;0.00;0.00;;;13.80;99.90;;;;;;5039102;28;20186;-67
2022/09/13 02:24:09;;;;;;;0.00;0.00;;;13.70;99.90;;;;;;5036664;28;20260;-67
2022/09/13 02:26:38;;;;;;;0.00;0.00;;;13.70;99.90;;;;;;5043086;28;20197;-67
2022/09/13 02:29:09;;;;;;;0.00;0.00;;;13.70;99.90;;;;;;5048865;28;20174;-67
2022/09/13 02:32:01;;;;;;;0.00;0.00;;;13.60;99.90;;;;;;5025904;28;20177;-68
2022/09/13 02:34:35;;;;;;;0.00;0.00;;;13.60;99.90;;;;;;5045116;28;20189;-68
2022/09/13 02:37:03;;;;;;;0.00;0.00;;;13.60;99.90;;;;;;5034739;28;20323;-67
2022/09/13 02:39:31;;;;;;;0.00;0.00;;;13.60;99.90;;;;;;5044255;28;20192;-67
2022/09/13 02:42:04;;;;;;;0.00;0.00;;;13.60;99.90;;;;;;5049013;28;20250;-67
2022/09/13 02:44:52;;;;;;;0.00;0.00;;;13.50;99.90;;;;;;5034072;28;20621;-67
2022/09/13 02:47:39;;;;;;;0.00;0.00;;;13.60;99.90;;;;;;5041405;28;20221;-68
2022/09/13 02:50:46;;;;;;;0.00;0.00;;;13.50;99.90;;;;;;5046480;28;20203;-68
2022/09/13 02:53:24;;;;;;;0.05;0.03;;;13.50;99.90;;;;;;5022563;28;20202;-68
2022/09/13 02:56:04;;;;;;;0.00;0.00;;;13.50;99.90;;;;;;5048666;28;20177;-68
2022/09/13 02:58:41;;;;;;;0.00;0.00;;;13.50;99.90;;;;;;5030702;28;20186;-69
2022/09/13 03:01:06;;;;;;;0.20;0.20;;;13.50;99.90;;;;;;5036793;28;20173;-68
2022/09/13 03:03:32;;;;;;;0.10;0.10;;;13.40;99.90;;;;;;5042887;28;20236;-68
2022/09/13 03:05:58;;;;;;;0.00;0.00;;;13.40;99.90;;;;;;5051408;28;20189;-67
2022/09/13 03:08:24;;;;;;;0.00;0.00;;;13.30;99.90;;;;;;5043628;28;20276;-67
2022/09/13 03:11:02;;;;;;;0.00;0.00;;;13.30;99.90;;;;;;5045779;28;20198;-67
2022/09/13 03:14:03;;;;;;;0.00;0.00;;;13.30;99.90;;;;;;5042484;28;20186;-67
2022/09/13 03:16:43;;;;;;;0.00;0.00;;;13.20;99.90;;;;;;5041096;28;20676;-67
2022/09/13 03:19:44;;;;;;;0.00;0.00;;;13.20;99.90;;;;;;5036295;28;20260;-67
2022/09/13 03:22:34;;;;;;;0.00;0.00;;;13.20;99.90;;;;;;5045036;28;20184;-67
2022/09/13 03:25:34;;;;;;;0.00;0.00;;;13.20;99.90;;;;;;5030058;28;20189;-68
2022/09/13 03:28:13;;;;;;;0.00;0.00;;;13.20;99.90;;;;;;5032874;28;20653;-67
2022/09/13 03:30:46;;;;;;;0.00;0.00;;;13.20;99.90;;;;;;5024369;28;20178;-67
2022/09/13 03:33:28;;;;;;;0.00;0.00;;;13.10;99.90;;;;;;5034332;28;20193;-68
2022/09/13 03:36:00;;;;;;;0.00;0.00;;;13.10;99.90;;;;;;5045296;28;20216;-67
2022/09/13 03:38:34;;;;;;;0.00;0.00;;;13.10;99.90;;;;;;5041117;28;20185;-68
2022/09/13 03:41:08;;;;;;;0.00;0.00;;;13.10;99.90;;;;;;5034521;28;20209;-68
2022/09/13 03:43:49;;;;;;;0.00;0.00;;;13.10;99.90;;;;;;5040690;28;20194;-66
2022/09/13 03:46:21;;;;;;;0.00;0.00;;;13.10;99.90;;;;;;5041359;28;20297;-67
2022/09/13 03:48:49;;;;;;;0.13;0.10;;;13.10;99.90;;;;;;5041076;28;20189;-67
2022/09/13 03:51:15;;;;;;;0.00;0.00;;;13.00;99.90;;;;;;5036358;28;20190;-67
2022/09/13 03:53:47;;;;;;;0.00;0.00;;;13.00;99.90;;;;;;5043870;28;20177;-66
2022/09/13 03:56:19;;;;;;;0.00;0.00;;;13.00;99.90;;;;;;5027688;28;20186;-69
2022/09/13 03:58:48;;;;;;;0.10;0.10;;;13.00;99.90;;;;;;5041578;28;20182;-68
2022/09/13 04:01:19;;;;;;;0.00;0.00;;;13.10;99.90;;;;;;5030593;28;20178;-64
2022/09/13 04:03:45;;;;;;;0.00;0.00;;;13.00;99.90;;;;;;5032169;28;20221;-74
2022/09/13 04:06:10;;;;;;;0.00;0.00;;;13.00;99.90;;;;;;5013993;28;20190;-68
2022/09/13 04:08:36;;;;;;;0.00;0.00;;;13.00;99.90;;;;;;5031226;28;20525;-63
2022/09/13 04:11:02;;;;;;;0.00;0.00;;;13.00;99.90;;;;;;5022567;28;20659;-65
2022/09/13 04:13:28;;;;;;;0.00;0.00;;;13.00;99.90;;;;;;5043904;28;20498;-69
2022/09/13 04:15:53;;;;;;;0.00;0.00;;;13.00;99.90;;;;;;5045492;28;20173;-70
2022/09/13 04:18:19;;;;;;;0.00;0.00;;;13.00;99.90;;;;;;5047723;28;20512;-65
2022/09/13 04:20:59;;;;;;;0.00;0.00;;;13.00;99.90;;;;;;5031858;28;20193;-67
2022/09/13 04:23:26;;;;;;;0.28;0.10;;;13.00;99.90;;;;;;5043281;28;20233;-68
2022/09/13 04:25:52;;;;;;;0.00;0.00;;;13.10;99.90;;;;;;5032040;28;20178;-70
2022/09/13 04:28:18;;;;;;;0.00;0.00;;;13.10;99.90;;;;;;5031898;28;20680;-70
2022/09/13 04:30:45;;;;;;;0.20;0.20;;;13.10;99.90;;;;;;5032139;28;20814;-69
2022/09/13 04:33:11;;;;;;;0.00;0.00;;;13.10;99.90;;;;;;5032771;28;20178;-66
2022/09/13 04:35:38;;;;;;;0.00;0.00;;;13.10;99.90;;;;;;5042385;28;20261;-65
2022/09/13 04:38:04;;;;;;;0.00;0.00;;;13.20;99.90;;;;;;5050557;28;20193;-66
2022/09/13 04:40:30;;;;;;;0.13;0.13;;;13.30;99.90;;;;;;5036276;28;20181;-68
2022/09/13 04:42:55;;;;;;;0.00;0.00;;;13.30;99.90;;;;;;5039080;28;20174;-68
2022/09/13 04:45:21;;;;;;;0.00;0.00;;;13.30;99.90;;;;;;5032609;28;20182;-68
2022/09/13 04:47:54;;;;;;;0.00;0.00;;;13.30;99.90;;;;;;5031426;28;20606;-67
2022/09/13 04:50:20;;;;;;;0.00;0.00;;;13.20;99.90;;;;;;5031700;28;20178;-67
2022/09/13 04:52:46;;;;;;;0.00;0.00;;;13.20;99.90;;;;;;5031638;28;20221;-67
2022/09/13 04:55:13;;;;;;;0.00;0.00;;;13.20;99.90;;;;;;5031518;28;20166;-68
2022/09/13 04:57:39;;;;;;;0.00;0.00;;;13.20;99.90;;;;;;5031650;28;20276;-67
2022/09/13 05:00:05;;;;;;;0.00;0.00;;;13.20;99.90;;;;;;5031732;28;20198;-67
2022/09/13 05:02:30;;;;;;;0.00;0.00;;;13.20;99.90;;;;;;5031226;28;20735;-67
2022/09/13 05:04:56;;;;;;;0.00;0.00;;;13.20;99.90;;;;;;5031899;28;20182;-68
2022/09/13 05:07:21;;;;;;;0.13;0.13;;;13.20;99.90;;;;;;5037341;28;20222;-67
2022/09/13 05:09:47;;;;;;;0.00;0.00;;;13.30;99.90;;;;;;5031463;28;20185;-68
2022/09/13 05:12:12;;;;;;;0.00;0.00;;;13.30;99.90;;;;;;5031637;28;20533;-68
2022/09/13 05:14:38;;;;;;;0.00;0.00;;;13.30;99.90;;;;;;5042712;28;20759;-68
2022/09/13 05:17:03;;;;;;;0.00;0.00;;;13.30;99.90;;;;;;5051686;28;20177;-68
2022/09/13 05:19:29;;;;;;;0.00;0.00;;;13.40;99.90;;;;;;5051235;28;20173;-68
2022/09/13 05:21:55;;;;;;;0.00;0.00;;;13.40;99.90;;;;;;5051491;28;20178;-68
2022/09/13 05:24:20;;;;;;;0.00;0.00;;;13.50;99.90;;;;;;5051447;28;20174;-68
2022/09/13 05:26:46;;;;;;;0.00;0.00;;;13.50;99.90;;;;;;5051355;28;20243;-67
2022/09/13 05:29:11;;;;;;;0.00;0.00;;;13.50;99.90;;;;;;5051311;28;20176;-68
2022/09/13 05:31:39;;;;;;;0.00;0.00;;;13.60;99.90;;;;;;5051253;28;20698;-68
2022/09/13 05:34:09;;;;;;;0.00;0.00;;;13.60;99.90;;;;;;5051431;28;20584;-68
2022/09/13 05:36:35;;;;;;;0.00;0.00;;;13.70;99.90;;;;;;5051481;28;20181;-68
2022/09/13 05:39:00;;;;;;;0.00;0.00;;;13.70;99.90;;;;;;5051293;28;20177;-68
2022/09/13 05:41:26;;;;;;;0.20;0.20;;;13.80;99.90;;;;;;5051355;28;20197;-68
2022/09/13 05:43:52;;;;;;;0.30;0.20;;;13.90;99.90;;;;;;5051077;28;20178;-68
2022/09/13 05:46:19;;;;;;;0.00;0.00;;;14.00;99.90;;;;;;5049947;28;20189;-68
2022/09/13 05:48:45;;;;;;;0.00;0.00;;;14.10;99.90;;;;;;5051259;28;20188;-68
2022/09/13 05:51:17;;;;;;;0.00;0.00;;;14.20;99.90;;;;;;5051061;28;20230;-68
2022/09/13 05:53:44;;;;;;;0.00;0.00;;;14.20;99.90;;;;;;5051161;28;20296;-68
2022/09/13 05:56:18;;;;;;;0.00;0.00;;;14.30;99.90;;;;;;5051178;28;20174;-68
2022/09/13 05:58:46;;;;;;;0.00;0.00;;;14.40;99.90;;;;;;5051266;28;20181;-68
2022/09/13 06:01:13;;;;;;;0.00;0.00;;;14.50;99.90;;;;;;5051199;28;20506;-68
2022/09/13 06:03:39;;;;;;;0.03;0.03;;;14.50;99.90;;;;;;5050877;28;20237;-68
2022/09/13 06:06:06;;;;;;;0.00;0.00;;;14.60;99.90;;;;;;5054451;28;20181;-68
2022/09/13 06:08:33;;;;;;;0.00;0.00;;;14.60;99.90;;;;;;5042311;28;20208;-68
2022/09/13 06:11:04;;;;;;;0.00;0.00;;;14.70;99.90;;;;;;5034772;28;20188;-68
2022/09/13 06:13:30;;;;;;;0.00;0.00;;;14.70;99.90;;;;;;5036357;28;20173;-68
2022/09/13 06:15:57;;;;;;;0.00;0.00;;;14.80;99.90;;;;;;5054572;28;20181;-68
2022/09/13 06:18:23;;;;;;;0.00;0.00;;;14.90;99.90;;;;;;5053218;28;20191;-68
2022/09/13 06:20:49;;;;;;;0.00;0.00;;;14.90;99.90;;;;;;5054373;28;20209;-68
2022/09/13 06:23:15;;;;;;;0.10;0.10;;;15.00;99.90;;;;;;5054436;28;20207;-68
2022/09/13 06:25:41;;;;;;;0.20;0.20;;;15.10;99.90;;;;;;5054339;28;20177;-68
2022/09/13 06:28:08;;;;;;;0.00;0.00;;;15.20;99.90;;;;;;5054230;28;20221;-68
2022/09/13 06:30:34;;;;;;;0.00;0.00;;;15.30;99.90;;;;;;5054200;28;20166;-68
2022/09/13 06:32:59;;;;;;;0.00;0.00;;;15.50;99.90;;;;;;5054312;28;20208;-69
2022/09/13 06:35:25;;;;;;;0.00;0.00;;;15.60;99.90;;;;;;5054176;28;20205;-68
2022/09/13 06:37:55;;;;;;;0.10;0.10;;;15.80;99.90;;;;;;5054070;28;20254;-68
2022/09/13 06:40:21;;;;;;;0.00;0.00;;;16.00;99.90;;;;;;5054098;28;20177;-68
2022/09/13 06:42:47;;;;;;;0.00;0.00;;;16.40;99.90;;;;;;5053787;28;20592;-69
2022/09/13 06:45:12;;;;;;;0.00;0.00;;;16.80;99.90;;;;;;5054019;28;20238;-68
2022/09/13 06:47:38;;;;;;;0.00;0.00;;;17.30;99.90;;;;;;5053707;28;20274;-68
2022/09/13 06:50:04;;;;;;;0.00;0.00;;;17.80;99.90;;;;;;5053910;28;20169;-68
2022/09/13 06:52:29;;;;;;;0.00;0.00;;;18.30;99.90;;;;;;5053755;28;20189;-68
2022/09/13 06:54:55;;;;;;;0.00;0.00;;;18.80;99.90;;;;;;5053909;28;20173;-68
2022/09/13 06:57:20;;;;;;;0.00;0.00;;;19.20;99.90;;;;;;5053903;28;20661;-66
2022/09/13 06:59:46;;;;;;;0.00;0.00;;;19.50;99.90;;;;;;5053639;28;20181;-66
2022/09/13 07:02:13;;;;;;;0.00;0.00;;;19.80;99.90;;;;;;5053556;28;20233;-67
2022/09/13 07:04:39;;;;;;;0.00;0.00;;;19.90;99.90;;;;;;5053566;28;20174;-67
2022/09/13 07:07:05;;;;;;;0.00;0.00;;;19.90;99.90;;;;;;5053111;28;20205;-67
2022/09/13 07:09:30;;;;;;;0.00;0.00;;;19.90;99.90;;;;;;5033513;28;20178;-66
2022/09/13 07:11:56;;;;;;;0.00;0.00;;;19.90;99.90;;;;;;5033583;28;20618;-66
2022/09/13 07:14:27;;;;;;;0.10;0.10;;;19.90;99.90;;;;;;5041103;28;20178;-66
2022/09/13 07:16:54;;;;;;;0.00;0.00;;;19.80;99.90;;;;;;5052510;28;20191;-66
2022/09/13 07:19:21;;;;;;;0.00;0.00;;;19.80;99.90;;;;;;5053404;28;20173;-66
2022/09/13 07:21:48;;;;;;;0.00;0.00;;;19.70;99.90;;;;;;5053245;28;20667;-66
2022/09/13 07:24:15;;;;;;;0.00;0.00;;;19.60;99.90;;;;;;5053138;28;20189;-66
2022/09/13 07:26:41;;;;;;;0.00;0.00;;;19.60;99.90;;;;;;5053110;28;20268;-66
2022/09/13 07:29:11;;;;;;;0.00;0.00;;;19.50;99.90;;;;;;5053090;28;20182;-67
2022/09/13 07:31:39;;;;;;;0.00;0.00;;;19.40;99.90;;;;;;5053111;28;20209;-66
2022/09/13 07:34:06;;;;;;;0.00;0.00;;;19.40;99.90;;;;;;5052985;28;20564;-66
2022/09/13 07:36:34;;;;;;;0.08;0.08;;;19.40;99.90;;;;;;5052964;28;20185;-66
2022/09/13 07:39:00;;;;;;;0.03;0.00;;;19.40;99.90;;;;;;5052991;28;20177;-66
2022/09/13 07:41:27;;;;;;;0.00;0.00;;;19.40;99.90;;;;;;5051745;28;20188;-66
2022/09/13 07:43:54;;;;;;;0.00;0.00;;;19.30;99.90;;;;;;5052913;28;20201;-66
2022/09/13 07:46:22;;;;;;;0.00;0.00;;;19.30;99.90;;;;;;5052873;28;20189;-66
2022/09/13 07:48:48;;;;;;;0.00;0.00;;;19.20;99.90;;;;;;5052825;28;20260;-66
2022/09/13 07:51:28;;;;;;;0.03;0.03;;;19.20;99.90;;;;;;5052813;28;20507;-66
2022/09/13 07:53:56;;;;;;;0.00;0.00;;;19.10;99.90;;;;;;5052709;28;20528;-66
2022/09/13 07:56:24;;;;;;;0.00;0.00;;;19.20;99.90;;;;;;5051483;28;20632;-66
2022/09/13 07:58:53;;;;;;;0.00;0.00;;;19.20;99.90;;;;;;5052483;28;20181;-66
2022/09/13 08:01:20;;;;;;;0.13;0.13;;;19.20;99.90;;;;;;5052656;28;20201;-66
2022/09/13 08:03:53;;;;;;;0.00;0.00;;;19.20;99.90;;;;;;5052295;28;20229;-66
2022/09/13 08:06:19;;;;;;;0.00;0.00;;;19.20;99.90;;;;;;5052505;28;20200;-66
2022/09/13 08:08:44;;;;;;;0.20;0.15;;;19.30;99.90;;;;;;5038276;28;20539;-66
2022/09/13 08:11:16;;;;;;;0.00;0.00;;;19.30;99.90;;;;;;5032490;28;20209;-66
2022/09/13 08:13:42;;;;;;;0.00;0.00;;;19.40;99.90;;;;;;5035811;28;20172;-66
2022/09/13 08:16:07;;;;;;;0.10;0.10;;;19.40;99.90;;;;;;5052275;28;20419;-66
2022/09/13 08:18:33;;;;;;;0.00;0.00;;;19.50;99.90;;;;;;5052306;28;20172;-66
2022/09/13 08:20:59;;;;;;;0.20;0.20;;;19.50;99.90;;;;;;5052232;28;20641;-66
2022/09/13 08:23:25;;;;;;;0.00;0.00;;;19.60;99.90;;;;;;5052202;28;20185;-66
2022/09/13 08:25:51;;;;;;;0.30;0.20;;;19.60;99.90;;;;;;5052044;28;20177;-66
2022/09/13 08:28:22;;;;;;;0.00;0.00;;;19.70;99.90;;;;;;5051823;28;20308;-66
2022/09/13 08:30:48;;;;;;;0.10;0.10;;;19.90;99.90;;;;;;5051936;28;20181;-66
2022/09/13 08:33:14;;;;;;;0.00;0.00;;;20.00;99.90;;;;;;5052020;28;20184;-66
2022/09/13 08:35:40;;;;;;;0.00;0.00;;;20.10;99.90;;;;;;5052108;28;20637;-66
2022/09/13 08:38:06;;;;;;;0.00;0.00;;;20.30;99.90;;;;;;5052091;28;20177;-66
2022/09/13 08:40:40;;;;;;;0.00;0.00;;;20.50;99.90;;;;;;5051953;28;20189;-66
2022/09/13 08:43:16;;;;;;;0.00;0.00;;;20.70;99.90;;;;;;5052011;28;20169;-66
2022/09/13 08:45:47;;;;;;;0.00;0.00;;;21.00;99.90;;;;;;5050656;28;20215;-66
2022/09/13 08:48:17;;;;;;;0.13;0.10;;;21.30;99.90;;;;;;5051883;28;20611;-67
2022/09/13 08:50:44;;;;;;;0.10;0.10;;;21.70;99.90;;;;;;5051820;28;20256;-66
2022/09/13 08:53:24;;;;;;;0.00;0.00;;;21.90;99.20;;;;;;5051884;28;20177;-67
2022/09/13 08:56:06;;;;;;;0.00;0.00;;;22.20;98.60;;;;;;5051738;28;20165;-67
2022/09/13 08:58:52;;;;;;;0.00;0.00;;;22.30;97.90;;;;;;5051793;28;20184;-66
2022/09/13 09:01:49;;;;;;;0.00;0.00;;;22.70;98.10;;;;;;5047591;28;20278;-66
2022/09/13 09:04:32;;;;;;;0.00;0.00;;;23.40;97.60;;;;;;5044126;28;20216;-67
2022/09/13 09:07:24;;;;;;;0.00;0.00;;;23.60;95.90;;;;;;5051742;28;20566;-66
2022/09/13 09:09:53;;;;;;;0.00;0.00;;;23.60;95.20;;;;;;5011701;28;20198;-67
2022/09/13 09:12:33;;;;;;;0.00;0.00;;;23.70;95.00;;;;;;5012187;28;20190;-67
2022/09/13 09:15:12;;;;;;;0.00;0.00;;;23.80;94.40;;;;;;5039836;28;20172;-67
2022/09/13 09:18:05;;;;;;;0.10;0.10;;;24.00;94.50;;;;;;5051487;28;20192;-67
2022/09/13 09:20:47;;;;;;;0.00;0.00;;;24.40;94.20;;;;;;5051501;28;20185;-67
2022/09/13 09:23:22;;;;;;;0.32;0.10;;;24.80;93.00;;;;;;5051554;28;20173;-67
2022/09/13 09:25:51;;;;;;;0.00;0.00;;;25.20;91.90;;;;;;5051614;28;20180;-67
2022/09/13 09:28:18;;;;;;;0.00;0.00;;;25.40;90.90;;;;;;5051362;28;20212;-67
2022/09/13 09:31:12;;;;;;;0.00;0.00;;;25.60;89.90;;;;;;5051276;28;20184;-67
2022/09/13 09:33:56;;;;;;;0.00;0.00;;;25.70;89.40;;;;;;5051481;28;20181;-67
2022/09/13 09:36:43;;;;;;;0.00;0.00;;;25.90;88.10;;;;;;5051405;28;20181;-67
2022/09/13 09:39:15;;;;;;;0.00;0.00;;;26.30;86.00;;;;;;5051935;28;20587;-67
2022/09/13 09:41:42;;;;;;;0.00;0.00;;;26.70;86.20;;;;;;5055235;28;20564;-67
2022/09/13 09:44:11;;;;;;;0.00;0.00;;;27.10;84.10;;;;;;5055160;28;20192;-67
2022/09/13 09:46:39;;;;;;;0.80;0.30;;;27.40;81.50;;;;;;5055040;28;20201;-67
2022/09/13 09:52:21;;;;;;;0.00;0.00;;;28.00;81.10;;;;;;5055359;28;20184;-67
2022/09/13 09:54:48;;;;;;;0.00;0.00;;;28.30;76.10;;;;;;5054906;28;20177;-68
2022/09/13 09:57:13;;;;;;;0.00;0.00;;;28.70;75.00;;;;;;5055192;28;20208;-67
2022/09/13 09:59:39;;;;;;;0.05;0.05;;;29.00;77.60;;;;;;5054920;28;20633;-67
2022/09/13 10:02:17;;;;;;;0.00;0.00;;;29.40;73.20;;;;;;5054790;28;20278;-67
2022/09/13 10:04:52;;;;;;;0.00;0.00;;;29.60;70.70;;;;;;5054776;28;20651;-67
2022/09/13 10:07:31;;;;;;;0.10;0.10;;;29.70;71.30;;;;;;5052644;28;20223;-67
2022/09/13 10:10:05;;;;;;;0.00;0.00;;;29.90;69.20;;;;;;5034953;28;20542;-67
2022/09/13 10:12:34;;;;;;;0.00;0.00;;;30.20;66.70;;;;;;5034693;28;20178;-67
2022/09/13 10:15:14;;;;;;;0.00;0.00;;;30.30;65.20;;;;;;5048903;28;20170;-68
2022/09/13 10:17:39;;;;;;;0.00;0.00;;;30.10;63.60;;;;;;5054710;28;20173;-68
2022/09/13 10:20:14;;;;;;;0.00;0.00;;;30.00;63.20;;;;;;5054644;28;20166;-68
2022/09/13 10:22:41;;;;;;;0.00;0.00;;;29.80;62.70;;;;;;5054452;28;20172;-67
2022/09/13 10:25:26;;;;;;;0.00;0.00;;;29.60;63.00;;;;;;5054407;28;20281;-69
2022/09/13 10:27:57;;;;;;;0.00;0.00;;;29.60;64.10;;;;;;5054361;28;20617;-68
2022/09/13 10:30:37;;;;;;;0.00;0.00;;;29.80;64.20;;;;;;5054283;28;20181;-68
2022/09/13 10:33:04;;;;;;;0.20;0.20;;;30.20;64.20;;;;;;5054298;28;20689;-69
2022/09/13 10:35:30;;;;;;;0.00;0.00;;;30.60;62.20;;;;;;5054128;28;20559;-68
2022/09/13 10:37:55;;;;;;;0.08;0.08;;;31.00;61.60;;;;;;5053052;28;20188;-68
2022/09/13 10:40:29;;;;;;;0.17;0.17;;;31.20;61.00;;;;;;5054143;28;20174;-68
2022/09/13 10:43:02;;;;;;;0.00;0.00;;;31.40;59.70;;;;;;5054216;28;20178;-68
2022/09/13 10:45:30;;;;;;;0.00;0.00;;;31.30;58.60;;;;;;5053902;28;20182;-69
2022/09/13 10:48:15;;;;;;;0.00;0.00;;;31.20;57.50;;;;;;5054024;28;20251;-68
2022/09/13 10:51:05;;;;;;;0.00;0.00;;;30.60;55.50;;;;;;5053783;28;20192;-68
2022/09/13 10:53:40;;;;;;;0.00;0.00;;;30.30;56.40;;;;;;5053792;28;20191;-68
2022/09/13 10:56:24;;;;;;;0.03;0.03;;;30.20;56.30;;;;;;5053860;28;20173;-68
2022/09/13 10:58:49;;;;;;;0.00;0.00;;;30.20;57.20;;;;;;5053737;28;20177;-68
2022/09/13 11:01:30;;;;;;;0.20;0.20;;;30.10;58.10;;;;;;5053785;28;20177;-68
2022/09/13 11:04:26;;;;;;;0.00;0.00;;;30.10;59.00;;;;;;5053689;28;20190;-67
2022/09/13 11:07:32;;;;;;;0.00;0.00;;;30.00;59.20;;;;;;5053522;28;20221;-68
2022/09/13 11:10:15;;;;;;;0.00;0.00;;;29.90;60.40;;;;;;5013824;28;20737;-67
2022/09/13 11:13:05;;;;;;;0.00;0.00;;;29.80;60.00;;;;;;5013906;28;20261;-67
2022/09/13 11:15:30;;;;;;;0.00;0.00;;;29.70;61.20;;;;;;5050178;28;20211;-68
2022/09/13 11:18:40;;;;;;;0.00;0.00;;;29.60;61.50;;;;;;5053401;28;20630;-67
2022/09/13 11:21:25;;;;;;;0.00;0.00;;;29.50;60.50;;;;;;5053457;28;20650;-67
2022/09/13 11:24:32;;;;;;;0.00;0.00;;;29.50;60.80;;;;;;5053329;28;20176;-67
2022/09/13 11:26:57;;;;;;;0.00;0.00;;;29.60;60.10;;;;;;5051940;28;20673;-68
2022/09/13 11:29:40;;;;;;;0.08;0.05;;;29.50;59.90;;;;;;5053234;28;20209;-68
2022/09/13 11:32:39;;;;;;;0.00;0.00;;;29.40;60.00;;;;;;5053270;28;20177;-68
2022/09/13 11:35:35;;;;;;;0.00;0.00;;;29.30;60.90;;;;;;5051846;28;20182;-68
2022/09/13 11:38:12;;;;;;;0.08;0.08;;;29.30;62.50;;;;;;5053159;28;20231;-67
2022/09/13 11:41:04;;;;;;;0.00;0.00;;;29.40;61.60;;;;;;5052806;28;20180;-68
2022/09/13 11:43:47;;;;;;;0.08;0.08;;;29.20;61.00;;;;;;5052828;28;20173;-67
2022/09/13 11:46:53;;;;;;;0.00;0.00;;;28.90;61.90;;;;;;5053085;28;20220;-67
2022/09/13 11:49:48;;;;;;;0.08;0.08;;;28.90;63.30;;;;;;5052883;28;20189;-68
2022/09/13 11:52:41;;;;;;;0.00;0.00;;;29.10;63.50;;;;;;5053013;28;20196;-67
2022/09/13 11:55:32;;;;;;;0.10;0.10;;;29.30;63.10;;;;;;5052590;28;20185;-68
2022/09/13 11:58:03;;;;;;;0.10;0.10;;;29.60;60.70;;;;;;5052835;28;20269;-67
2022/09/13 12:00:45;;;;;;;0.00;0.00;;;29.90;61.30;;;;;;5052285;28;20605;-67
2022/09/13 12:03:26;;;;;;;0.00;0.00;;;29.80;60.10;;;;;;5051600;28;20760;-67
2022/09/13 12:06:13;;;;;;;0.00;0.00;;;29.80;60.30;;;;;;5052617;28;20236;-67
2022/09/13 12:08:47;;;;;;;0.00;0.00;;;29.90;58.70;;;;;;5039041;28;20197;-67
2022/09/13 12:11:42;;;;;;;0.00;0.00;;;29.90;58.20;;;;;;5032530;28;20544;-68
2022/09/13 12:14:15;;;;;;;0.00;0.00;;;29.90;58.80;;;;;;5039274;28;20189;-68
2022/09/13 12:16:45;;;;;;;0.00;0.00;;;29.90;59.50;;;;;;5052218;28;20186;-68
2022/09/13 12:19:19;;;;;;;0.00;0.00;;;30.00;58.50;;;;;;5052298;28;20200;-68
2022/09/13 12:21:47;;;;;;;0.00;0.00;;;30.10;58.50;;;;;;5052200;28;20180;-68
2022/09/13 12:24:19;;;;;;;0.00;0.00;;;30.10;58.10;;;;;;5052321;28;20637;-68
2022/09/13 12:27:02;;;;;;;0.08;0.08;;;30.20;58.00;;;;;;5052094;28;20673;-68
2022/09/13 12:29:47;;;;;;;0.00;0.00;;;30.10;57.80;;;;;;5052026;28;20189;-68
2022/09/13 12:32:14;;;;;;;0.00;0.00;;;30.20;57.50;;;;;;5052151;28;20223;-68
2022/09/13 12:34:56;;;;;;;0.00;0.00;;;30.30;57.80;;;;;;5051882;28;20181;-68
2022/09/13 12:37:59;;;;;;;0.00;0.00;;;30.50;57.80;;;;;;5052090;28;20587;-68
2022/09/13 12:40:49;;;;;;;0.00;0.00;;;30.90;57.60;;;;;;5052075;28;20176;-68
2022/09/13 12:43:44;;;;;;;0.03;0.03;;;31.20;57.30;;;;;;5051998;28;20200;-68
2022/09/13 12:46:15;;;;;;;0.00;0.00;;;31.60;56.20;;;;;;5041270;28;20266;-68
2022/09/13 12:49:13;;;;;;;0.00;0.00;;;31.70;54.70;;;;;;5051975;28;20189;-68
2022/09/13 12:51:41;;;;;;;0.00;0.00;;;31.80;55.10;;;;;;5050712;28;20562;-68
2022/09/13 12:54:52;;;;;;;0.00;0.00;;;31.70;55.50;;;;;;5051901;28;20290;-68
2022/09/13 12:57:45;;;;;;;0.00;0.00;;;31.70;54.40;;;;;;5036808;28;20538;-68
2022/09/13 13:00:20;;;;;;;0.00;0.00;;;31.50;54.70;;;;;;5051795;28;20165;-68
2022/09/13 13:02:58;;;;;;;0.00;0.00;;;31.20;53.90;;;;;;5051591;28;20235;-68
2022/09/13 13:05:31;;;;;;;0.40;0.22;;;30.90;54.40;;;;;;5051814;28;20665;-68
2022/09/13 13:08:01;;;;;;;0.00;0.00;;;30.80;54.60;;;;;;5039520;28;20214;-68
2022/09/13 13:10:31;;;;;;;0.00;0.00;;;30.70;55.10;;;;;;5011887;28;20698;-68
2022/09/13 13:13:13;;;;;;;0.10;0.10;;;30.50;55.40;;;;;;5012122;28;20205;-68
2022/09/13 13:15:42;;;;;;;0.00;0.00;;;30.30;55.90;;;;;;5053968;28;20225;-69
2022/09/13 13:18:43;;;;;;;0.00;0.00;;;30.20;56.30;;;;;;5055663;28;20694;-69
2022/09/13 13:21:24;;;;;;;0.10;0.00;;;30.30;56.70;;;;;;5055736;28;20221;-68
2022/09/13 13:24:14;;;;;;;0.03;0.03;;;30.50;55.10;;;;;;5055867;28;20181;-69
2022/09/13 13:26:45;;;;;;;0.00;0.00;;;30.60;53.60;;;;;;5055611;28;20216;-69